Terminal Aerodrome Forecast
Issued by NWS Atlanta, GA

Home | Current Version | Previous Version | Text Only | Print | Product List | Glossary On
Versions: 1 2 3 4 5 6 7 8 9 10 11 12 13 14 15 16 17 18 19 20 21 22 23 24 25 26 27 28 29 30 31 32 33 34 35 36
000
FTUS42 KFFC 271300 AAA
TAFATL
TAF AMD
KATL 271336Z 2714/2818 27009G18KT P6SM SCT035
     FM271800 27012G22KT P6SM SCT050
     FM280000 26009KT P6SM FEW060 SCT100
     FM281000 27007KT P6SM SCT035 BKN050
     FM281500 29010KT P6SM VCSH BKN040 PROB30 2815/2818 5SM -SHRA
      BKN035=

USA.gov is the U.S. government's official web portal to all federal, state and local government web resources and services.